Terminal Aerodrome Forecast
Issued by NWS

Home | Current Version | Previous Version | Text Only | Print | Product List | Glossary On
Versions: 1 2 3 4 5 6 7 8 9 10 11 12 13 14 15 16 17 18 19 20 21 22 23 24 25 26 27 28 29 30 31 32 33 34 35 36 37 38
000
FTUS43 KDMX 240540
TAFMCW
TAF
KMCW 240540Z 2406/2506 03022G34KT 3/4SM -SN OVC005
      TEMPO 2406/2408 1/4SM +TSSN BKN005 OVC012CB
     FM240800 03022G33KT 1/2SM SN OVC008
     FM241200 01027G38KT 1/4SM +SN BLSN OVC003
     FM242200 36023G34KT 3/4SM -SN BLSN OVC004
     FM250100 34022G32KT 3SM -SN BLSN OVC006=

USA.gov is the U.S. government's official web portal to all federal, state and local government web resources and services.